メインページ
METAR-TAF:

METAR-TAF

空港 :

ゴールドコースト空港

クーランガッタ, オーストラリア

緯度: 28-10S, 経度: 153-30E, 海抜: 6m

現時点の気象観測

当レポートは18分前の21:00(UTC)に作成
北東の風 9kt
気温 24°C
湿度 89%
気圧 1011 hPa
視程10km以上
高度2000ftの雲は散在している
高度2400ftの曇り

METAR: YBCG 152100Z AUTO 04009KT 9999 // SCT020 OVC024 24/22 Q1011

時間: 07:18 (21:18 UTC)

予報

当レポートは3時間38分前の17:40(UTC)に作成
予報は15日の 18時(UTC)から 16日の 18時(UTC)まで有効
北/北東の風 12kt
視程10km以上
高度1000ftの雲は散在している
高度2000ftの千切れ雲あり
高度3500ftの千切れ雲あり
弱いにわか雨
16日の 0000時(UTC)から
北東の風 17kt
視程10km以上
高度1500ftの雲は散在している
高度2500ftの千切れ雲あり
高度4000ftの曇り
弱いにわか雨
16日の 0800時(UTC)から
北東の風 14kt
視程: 3000m
高度1200ftの雲は散在している
高度2000ftの千切れ雲あり
高度4000ftの千切れ雲あり
高度1000ftの千切れ雲あり
弱いにわか雨, にわか雨
15日の 20時(UTC)から 16日の 12時(UTC)まで一時的に
視程: 3000m
高度1000ftの千切れ雲あり
高度1000ftの千切れ雲あり
にわか雨, にわか雨
確率 30% :
16日の 04時(UTC)から 16日の 12時(UTC)まで一時的に
変向風 30kt、最大40ktの突風を伴う
視程: 1000m
高度1000ftの千切れ雲あり
高度3000ftの雲は散在している, 積乱雲.
激しい雷雨, 雨

TAF: YBCG 151740Z 1518/1618 03012KT 9999 -SHRA SCT010 BKN020 BKN035 FM160000 04017KT 9999 -SHRA SCT015 BKN025 OVC040 FM160800 05014KT 9999 -SHRA SCT012 BKN020 BKN040 INTER 1518/1520 3000 SHRA BKN010 TEMPO 1520/1612 2000 SHRA BKN010 INTER 1612/1618 3000 SHRA BKN010 PROB30 TEMPO 1604/1612 VRB30G40KT 1000 TSRA BKN010 SCT030CB

4,000以上の空港の気象観測と天気予報(METAR報とTAF報)

利用可能な観測所は地図上に黄色い丸と赤い丸で示す。

丸の上にカーソルを重ねると観測所名を参照できる。

次にクリックすると気象観測と天気予報を参照できる。

マップの切り替え:黒色「×」印の緑ボタンをクリックして拡大、「-」印の緑ボタンをクリックして縮小、緑色の三角印をクリックして隣りの地図に切り替え


METAR-TAF: